createdAt,value
2018-12-21T00:00:54.752Z,1009.11
2018-12-21T00:01:54.741Z,1009.08
2018-12-21T00:02:54.732Z,1009.11
2018-12-21T00:03:54.707Z,1009.10
2018-12-21T00:04:54.721Z,1009.05
2018-12-21T00:05:54.702Z,1009.07
2018-12-21T00:06:54.680Z,1009.06
2018-12-21T00:07:54.659Z,1009.04
2018-12-21T00:08:54.660Z,1009.02
2018-12-21T00:09:54.655Z,1009.06
2018-12-21T00:10:54.663Z,1009.01
2018-12-21T00:11:54.650Z,1009.04
2018-12-21T00:12:54.658Z,1009.04
2018-12-21T00:13:54.606Z,1009.03
2018-12-21T00:14:54.587Z,1009.03
2018-12-21T00:15:54.574Z,1009.00
2018-12-21T00:16:54.579Z,1009.00
2018-12-21T00:17:55.397Z,1008.99
2018-12-21T00:18:54.607Z,1008.99
2018-12-21T00:19:54.536Z,1008.98
2018-12-21T00:20:54.617Z,1008.96
2018-12-21T00:21:54.506Z,1008.94
2018-12-21T00:22:54.499Z,1008.92
2018-12-21T00:23:54.496Z,1008.97
2018-12-21T00:24:54.488Z,1008.95
2018-12-21T00:25:54.492Z,1008.92
2018-12-21T00:26:54.450Z,1008.92
2018-12-21T00:27:54.459Z,1008.93
2018-12-21T00:28:54.443Z,1008.92
2018-12-21T00:29:54.421Z,1008.93
2018-12-21T00:30:54.492Z,1008.93
2018-12-21T00:31:54.885Z,1008.87
2018-12-21T00:32:54.573Z,1008.87
2018-12-21T00:33:54.390Z,1008.80
2018-12-21T00:34:54.375Z,1008.82
2018-12-21T00:35:54.360Z,1008.80
2018-12-21T00:36:54.351Z,1008.83
2018-12-21T00:37:54.357Z,1008.80
2018-12-21T00:38:54.979Z,1008.76
2018-12-21T00:39:54.314Z,1008.79
2018-12-21T00:40:54.324Z,1008.83
2018-12-21T00:41:54.300Z,1008.80
2018-12-21T00:42:54.275Z,1008.83
2018-12-21T00:43:54.270Z,1008.78
2018-12-21T00:44:54.254Z,1008.81
2018-12-21T00:45:54.250Z,1008.81
2018-12-21T00:46:54.285Z,1008.82
2018-12-21T00:47:54.237Z,1008.84
2018-12-21T00:48:54.230Z,1008.82
2018-12-21T00:49:54.201Z,1008.80
2018-12-21T00:50:54.190Z,1008.81
2018-12-21T00:51:54.186Z,1008.81
2018-12-21T00:52:54.185Z,1008.87
2018-12-21T00:53:54.167Z,1008.89
2018-12-21T00:54:54.165Z,1008.84
2018-12-21T00:55:54.153Z,1008.80
2018-12-21T00:56:54.254Z,1008.84
2018-12-21T00:57:54.176Z,1008.83
2018-12-21T00:58:54.112Z,1008.86
2018-12-21T00:59:54.107Z,1008.85
2018-12-21T01:00:54.083Z,1008.82
2018-12-21T01:01:54.078Z,1008.85
2018-12-21T01:02:54.058Z,1008.85
2018-12-21T01:03:54.422Z,1008.85
2018-12-21T01:04:54.050Z,1008.86
2018-12-21T01:05:54.034Z,1008.88
2018-12-21T01:06:54.031Z,1008.89
2018-12-21T01:07:54.009Z,1008.89
2018-12-21T01:08:54.033Z,1008.95
2018-12-21T01:09:53.982Z,1008.89
2018-12-21T01:10:53.985Z,1008.93
2018-12-21T01:11:53.997Z,1008.92
2018-12-21T01:12:53.954Z,1008.93
2018-12-21T01:13:53.960Z,1008.95
2018-12-21T01:14:53.940Z,1008.90
2018-12-21T01:15:53.954Z,1008.94
2018-12-21T01:16:53.920Z,1008.91
2018-12-21T01:17:53.905Z,1008.95
2018-12-21T01:18:53.894Z,1008.92
2018-12-21T01:19:53.887Z,1008.96
2018-12-21T01:20:53.874Z,1008.98
2018-12-21T01:21:53.866Z,1008.95
2018-12-21T01:22:53.854Z,1008.96
2018-12-21T01:23:53.848Z,1009.01
2018-12-21T01:24:53.822Z,1009.00
2018-12-21T01:25:53.831Z,1008.97
2018-12-21T01:26:53.806Z,1008.99
2018-12-21T01:27:53.799Z,1008.99
2018-12-21T01:28:53.944Z,1008.97
2018-12-21T01:29:53.777Z,1008.97
2018-12-21T01:30:53.757Z,1008.98
2018-12-21T01:31:53.755Z,1008.98
2018-12-21T01:32:53.754Z,1008.96
2018-12-21T01:33:53.722Z,1008.96
2018-12-21T01:34:53.751Z,1008.88
2018-12-21T01:35:53.712Z,1008.86
2018-12-21T01:36:53.696Z,1008.86
2018-12-21T01:37:53.682Z,1008.87
2018-12-21T01:38:53.679Z,1008.84
2018-12-21T01:39:53.674Z,1008.86
2018-12-21T01:40:53.676Z,1008.79
2018-12-21T01:41:53.651Z,1008.78
2018-12-21T01:42:53.632Z,1008.81
2018-12-21T01:43:53.629Z,1008.83
2018-12-21T01:44:53.603Z,1008.82
2018-12-21T01:45:53.616Z,1008.81
2018-12-21T01:46:53.610Z,1008.79
2018-12-21T01:47:53.584Z,1008.78
2018-12-21T01:48:53.570Z,1008.78
2018-12-21T01:49:53.571Z,1008.77
2018-12-21T01:50:53.593Z,1008.73
2018-12-21T01:51:53.528Z,1008.73
2018-12-21T01:52:53.547Z,1008.74
2018-12-21T01:53:53.522Z,1008.74
2018-12-21T01:54:53.501Z,1008.73
2018-12-21T01:55:53.558Z,1008.66
2018-12-21T01:56:54.405Z,1008.70
2018-12-21T01:57:53.469Z,1008.65
2018-12-21T01:58:53.458Z,1008.68
2018-12-21T01:59:53.452Z,1008.66
2018-12-21T02:00:53.447Z,1008.71
2018-12-21T02:01:53.435Z,1008.69
2018-12-21T02:02:53.441Z,1008.67
2018-12-21T02:03:53.400Z,1008.66
2018-12-21T02:04:53.395Z,1008.67
2018-12-21T02:05:53.381Z,1008.65
2018-12-21T02:06:53.376Z,1008.67
2018-12-21T02:07:53.378Z,1008.65
2018-12-21T02:08:53.353Z,1008.62
2018-12-21T02:09:53.345Z,1008.63
2018-12-21T02:10:53.339Z,1008.62
2018-12-21T02:11:53.314Z,1008.57
2018-12-21T02:12:53.332Z,1008.59
2018-12-21T02:13:53.328Z,1008.56
2018-12-21T02:14:53.296Z,1008.53
2018-12-21T02:15:53.270Z,1008.53
2018-12-21T02:16:53.273Z,1008.54
2018-12-21T02:17:53.258Z,1008.55
2018-12-21T02:18:53.242Z,1008.49
2018-12-21T02:19:53.247Z,1008.53
2018-12-21T02:20:53.219Z,1008.51
2018-12-21T02:21:56.039Z,1008.58
2018-12-21T02:22:53.195Z,1008.47
2018-12-21T02:23:53.209Z,1008.44
2018-12-21T02:24:53.187Z,1008.48
2018-12-21T02:25:53.170Z,1008.42
2018-12-21T02:26:53.161Z,1008.42
2018-12-21T02:27:53.143Z,1008.46
2018-12-21T02:28:53.139Z,1008.45
2018-12-21T02:29:53.164Z,1008.41
2018-12-21T02:30:53.127Z,1008.38
2018-12-21T02:31:53.104Z,1008.40
2018-12-21T02:32:53.090Z,1008.41
2018-12-21T02:33:53.086Z,1008.42
2018-12-21T02:34:53.075Z,1008.40
2018-12-21T02:35:53.092Z,1008.42
2018-12-21T02:36:53.041Z,1008.43
2018-12-21T02:37:53.033Z,1008.40
2018-12-21T02:38:53.028Z,1008.42
2018-12-21T02:39:53.026Z,1008.39
2018-12-21T02:40:53.002Z,1008.45
2018-12-21T02:41:53.018Z,1008.38
2018-12-21T02:42:53.004Z,1008.40
2018-12-21T02:43:53.926Z,1008.41
2018-12-21T02:44:53.018Z,1008.40
2018-12-21T02:45:53.037Z,1008.41
2018-12-21T02:46:53.080Z,1008.42
2018-12-21T02:47:52.941Z,1008.41
2018-12-21T02:48:52.927Z,1008.43
2018-12-21T02:49:52.903Z,1008.44
2018-12-21T02:50:52.904Z,1008.39
2018-12-21T02:51:52.893Z,1008.41
2018-12-21T02:52:52.886Z,1008.42
2018-12-21T02:53:52.875Z,1008.41
2018-12-21T02:54:52.849Z,1008.44
2018-12-21T02:55:52.843Z,1008.43
2018-12-21T02:56:52.950Z,1008.42
2018-12-21T02:57:52.845Z,1008.38
2018-12-21T02:58:52.816Z,1008.38
2018-12-21T02:59:52.791Z,1008.33
2018-12-21T03:00:52.789Z,1008.33
2018-12-21T03:01:52.768Z,1008.35
2018-12-21T03:02:52.799Z,1008.36
2018-12-21T03:03:52.759Z,1008.36
2018-12-21T03:04:52.745Z,1008.31
2018-12-21T03:05:52.729Z,1008.31
2018-12-21T03:06:52.736Z,1008.30
2018-12-21T03:07:52.730Z,1008.31
2018-12-21T03:08:52.730Z,1008.30
2018-12-21T03:09:52.693Z,1008.30
2018-12-21T03:10:52.676Z,1008.29
2018-12-21T03:11:52.671Z,1008.29
2018-12-21T03:12:52.660Z,1008.32
2018-12-21T03:13:52.650Z,1008.29
2018-12-21T03:14:52.652Z,1008.25
2018-12-21T03:15:52.622Z,1008.22
2018-12-21T03:16:52.615Z,1008.20
2018-12-21T03:17:52.619Z,1008.25
2018-12-21T03:18:52.592Z,1008.18
2018-12-21T03:19:52.579Z,1008.21
2018-12-21T03:20:52.603Z,1008.25
2018-12-21T03:21:52.550Z,1008.25
2018-12-21T03:22:52.598Z,1008.22
2018-12-21T03:23:52.552Z,1008.19
2018-12-21T03:24:52.528Z,1008.18
2018-12-21T03:25:52.548Z,1008.25
2018-12-21T03:26:52.502Z,1008.20
2018-12-21T03:27:52.484Z,1008.21
2018-12-21T03:28:52.488Z,1008.20
2018-12-21T03:29:52.471Z,1008.24
2018-12-21T03:30:52.449Z,1008.22
2018-12-21T03:31:52.960Z,1008.20
2018-12-21T03:32:52.448Z,1008.16
2018-12-21T03:33:52.421Z,1008.15
2018-12-21T03:34:52.420Z,1008.16
2018-12-21T03:35:52.441Z,1008.16
2018-12-21T03:36:52.396Z,1008.20
2018-12-21T03:37:52.374Z,1008.09
2018-12-21T03:38:52.384Z,1008.11
2018-12-21T03:39:52.354Z,1008.14
2018-12-21T03:40:52.345Z,1008.12
2018-12-21T03:41:52.380Z,1008.10
2018-12-21T03:42:52.332Z,1008.08
2018-12-21T03:43:52.313Z,1008.09
2018-12-21T03:44:52.293Z,1008.10
2018-12-21T03:45:52.284Z,1008.06
2018-12-21T03:46:52.285Z,1008.04
2018-12-21T03:47:52.295Z,1008.07
2018-12-21T03:48:52.261Z,1008.02
2018-12-21T03:49:52.247Z,1008.04
2018-12-21T03:50:52.235Z,1008.01
2018-12-21T03:51:52.215Z,1007.97
2018-12-21T03:52:52.263Z,1007.95
2018-12-21T03:53:52.206Z,1007.96
2018-12-21T03:54:52.193Z,1007.94
2018-12-21T03:55:52.218Z,1007.94
2018-12-21T03:56:52.161Z,1007.93
2018-12-21T03:57:52.152Z,1007.90
2018-12-21T03:59:00.967Z,1007.87
2018-12-21T03:59:52.132Z,1007.91
2018-12-21T04:00:52.127Z,1007.84
2018-12-21T04:01:52.107Z,1007.91
2018-12-21T04:02:52.102Z,1007.89
2018-12-21T04:03:52.105Z,1007.85
2018-12-21T04:04:52.097Z,1007.85
2018-12-21T04:05:52.095Z,1007.87
2018-12-21T04:06:52.072Z,1007.84
2018-12-21T04:07:52.055Z,1007.84
2018-12-21T04:08:52.084Z,1007.85
2018-12-21T04:09:52.021Z,1007.84
2018-12-21T04:10:52.022Z,1007.82
2018-12-21T04:11:52.011Z,1007.82
2018-12-21T04:12:51.987Z,1007.76
2018-12-21T04:13:52.014Z,1007.78
2018-12-21T04:14:51.998Z,1007.77
2018-12-21T04:15:52.091Z,1007.73
2018-12-21T04:16:51.946Z,1007.79
2018-12-21T04:17:51.948Z,1007.75
2018-12-21T04:18:51.939Z,1007.76
2018-12-21T04:19:51.917Z,1007.80
2018-12-21T04:20:51.901Z,1007.78
2018-12-21T04:21:51.908Z,1007.79
2018-12-21T04:22:51.893Z,1007.76
2018-12-21T04:23:51.924Z,1007.80
2018-12-21T04:24:51.867Z,1007.77
2018-12-21T04:25:51.859Z,1007.78
2018-12-21T04:26:51.850Z,1007.77
2018-12-21T04:27:51.833Z,1007.74
2018-12-21T04:28:51.823Z,1007.72
2018-12-21T04:29:51.907Z,1007.73
2018-12-21T04:30:51.792Z,1007.72
2018-12-21T04:31:51.785Z,1007.76
2018-12-21T04:32:51.780Z,1007.80
2018-12-21T04:33:51.773Z,1007.73
2018-12-21T04:34:51.749Z,1007.77
2018-12-21T04:35:51.774Z,1007.76
2018-12-21T04:36:51.801Z,1007.75
2018-12-21T04:37:51.721Z,1007.76
2018-12-21T04:38:51.718Z,1007.75
2018-12-21T04:39:51.715Z,1007.74
2018-12-21T04:40:51.717Z,1007.77
2018-12-21T04:41:51.683Z,1007.76
2018-12-21T04:42:51.664Z,1007.72
2018-12-21T04:43:51.666Z,1007.72
2018-12-21T04:44:51.654Z,1007.77
2018-12-21T04:45:51.641Z,1007.76
2018-12-21T04:46:51.659Z,1007.72
2018-12-21T04:47:51.614Z,1007.74
2018-12-21T04:48:51.608Z,1007.68
2018-12-21T04:49:51.591Z,1007.69
2018-12-21T04:50:51.580Z,1007.70
2018-12-21T04:51:51.561Z,1007.65
2018-12-21T04:52:51.577Z,1007.69
2018-12-21T04:53:51.563Z,1007.61
2018-12-21T04:54:51.531Z,1007.63
2018-12-21T04:55:51.531Z,1007.66
2018-12-21T04:56:51.515Z,1007.66
2018-12-21T04:57:51.498Z,1007.64
2018-12-21T04:58:51.515Z,1007.66
2018-12-21T04:59:51.485Z,1007.61
2018-12-21T05:00:51.462Z,1007.60
2018-12-21T05:01:51.457Z,1007.55
2018-12-21T05:02:51.446Z,1007.54
2018-12-21T05:03:51.460Z,1007.60
2018-12-21T05:04:51.437Z,1007.55
2018-12-21T05:05:51.410Z,1007.52
2018-12-21T05:06:51.394Z,1007.54
2018-12-21T05:07:51.403Z,1007.53
2018-12-21T05:08:51.413Z,1007.50
2018-12-21T05:09:51.372Z,1007.48
2018-12-21T05:10:51.364Z,1007.46
2018-12-21T05:11:51.357Z,1007.48
2018-12-21T05:12:51.342Z,1007.48
2018-12-21T05:13:51.335Z,1007.48
2018-12-21T05:14:51.346Z,1007.46
2018-12-21T05:15:51.309Z,1007.45
2018-12-21T05:16:51.284Z,1007.45
2018-12-21T05:17:51.286Z,1007.47
2018-12-21T05:18:51.292Z,1007.45
2018-12-21T05:19:51.301Z,1007.41
2018-12-21T05:20:51.247Z,1007.46
2018-12-21T05:21:51.246Z,1007.41
2018-12-21T05:22:52.377Z,1007.43
2018-12-21T05:23:51.222Z,1007.45
2018-12-21T05:24:51.196Z,1007.45
2018-12-21T05:25:51.218Z,1007.44
2018-12-21T05:26:51.189Z,1007.39
2018-12-21T05:27:51.183Z,1007.42
2018-12-21T05:28:51.152Z,1007.43
2018-12-21T05:29:51.152Z,1007.40
2018-12-21T05:30:51.192Z,1007.39
2018-12-21T05:31:51.120Z,1007.40
2018-12-21T05:32:51.120Z,1007.43
2018-12-21T05:33:51.104Z,1007.43
2018-12-21T05:34:51.094Z,1007.40
2018-12-21T05:35:51.090Z,1007.37
2018-12-21T05:36:51.101Z,1007.37
2018-12-21T05:37:51.067Z,1007.42
2018-12-21T05:38:51.052Z,1007.37
2018-12-21T05:39:51.045Z,1007.36
2018-12-21T05:40:51.021Z,1007.36
2018-12-21T05:41:51.016Z,1007.37
2018-12-21T05:42:51.011Z,1007.38
2018-12-21T05:43:51.013Z,1007.35
2018-12-21T05:44:50.987Z,1007.31
2018-12-21T05:45:50.969Z,1007.30
2018-12-21T05:46:50.958Z,1007.32
2018-12-21T05:47:50.960Z,1007.30
2018-12-21T05:48:50.930Z,1007.27
2018-12-21T05:49:50.930Z,1007.25
2018-12-21T05:50:50.924Z,1007.23
2018-12-21T05:51:50.922Z,1007.28
2018-12-21T05:52:50.900Z,1007.22
2018-12-21T05:53:50.904Z,1007.18
2018-12-21T05:54:50.868Z,1007.13
2018-12-21T05:55:50.868Z,1007.17
2018-12-21T05:56:50.849Z,1007.16
2018-12-21T05:57:50.836Z,1007.16
2018-12-21T05:58:50.837Z,1007.16
2018-12-21T05:59:50.809Z,1007.13
2018-12-21T06:00:50.817Z,1007.14
2018-12-21T06:01:50.792Z,1007.07
2018-12-21T06:02:50.798Z,1007.07
2018-12-21T06:03:50.779Z,1007.06
2018-12-21T06:04:50.760Z,1007.02
2018-12-21T06:05:50.757Z,1006.95
2018-12-21T06:06:50.732Z,1006.95
2018-12-21T06:07:50.730Z,1006.91
2018-12-21T06:08:50.749Z,1006.91
2018-12-21T06:09:50.709Z,1006.89
2018-12-21T06:10:50.692Z,1006.90
2018-12-21T06:11:50.691Z,1006.88
2018-12-21T06:12:50.682Z,1006.87
2018-12-21T06:13:50.666Z,1006.88
2018-12-21T06:14:50.657Z,1006.87
2018-12-21T06:15:50.641Z,1006.89
2018-12-21T06:16:50.631Z,1006.81
2018-12-21T06:17:50.619Z,1006.84
2018-12-21T06:18:50.614Z,1006.82
2018-12-21T06:19:50.603Z,1006.78
2018-12-21T06:20:50.585Z,1006.80
2018-12-21T06:21:50.570Z,1006.80
2018-12-21T06:22:50.572Z,1006.77
2018-12-21T06:23:50.549Z,1006.72
2018-12-21T06:24:50.547Z,1006.70
2018-12-21T06:25:50.530Z,1006.64
2018-12-21T06:26:50.514Z,1006.65
2018-12-21T06:27:50.510Z,1006.57
2018-12-21T06:28:50.516Z,1006.56
2018-12-21T06:29:50.487Z,1006.56
2018-12-21T06:30:50.466Z,1006.54
2018-12-21T06:31:50.462Z,1006.48
2018-12-21T06:32:50.443Z,1006.48
2018-12-21T06:33:50.432Z,1006.43
2018-12-21T06:34:50.431Z,1006.45
2018-12-21T06:35:50.411Z,1006.39
2018-12-21T06:36:50.400Z,1006.37
2018-12-21T06:37:50.400Z,1006.38
2018-12-21T06:38:50.392Z,1006.34
2018-12-21T06:39:50.385Z,1006.29
2018-12-21T06:40:50.360Z,1006.34
2018-12-21T06:41:50.375Z,1006.32
2018-12-21T06:42:50.832Z,1006.36
2018-12-21T06:43:50.327Z,1006.34
2018-12-21T06:44:50.311Z,1006.37
2018-12-21T06:45:50.312Z,1006.38
2018-12-21T06:46:50.318Z,1006.33
2018-12-21T06:47:50.282Z,1006.42
2018-12-21T06:48:50.278Z,1006.35
2018-12-21T06:49:50.266Z,1006.39
2018-12-21T06:50:50.267Z,1006.36
2018-12-21T06:51:50.259Z,1006.37
2018-12-21T06:52:50.228Z,1006.39
2018-12-21T06:53:50.211Z,1006.34
2018-12-21T06:54:50.217Z,1006.31
2018-12-21T06:55:50.199Z,1006.32
2018-12-21T06:56:50.193Z,1006.30
2018-12-21T06:57:50.171Z,1006.31
2018-12-21T06:58:50.162Z,1006.23
2018-12-21T06:59:50.151Z,1006.23
2018-12-21T07:00:50.149Z,1006.21
2018-12-21T07:01:50.150Z,1006.26
2018-12-21T07:02:50.123Z,1006.22
2018-12-21T07:03:50.105Z,1006.24
2018-12-21T07:04:50.121Z,1006.25
2018-12-21T07:05:50.089Z,1006.19
2018-12-21T07:06:50.077Z,1006.18
2018-12-21T07:07:50.095Z,1006.12
2018-12-21T07:08:50.046Z,1006.12
2018-12-21T07:09:50.045Z,1006.13
2018-12-21T07:10:50.034Z,1006.10
2018-12-21T07:11:50.025Z,1006.11
2018-12-21T07:12:50.020Z,1006.10
2018-12-21T07:13:50.013Z,1006.05
2018-12-21T07:14:49.992Z,1006.10
2018-12-21T07:15:49.978Z,1006.14
2018-12-21T07:16:49.990Z,1006.17
2018-12-21T07:17:49.952Z,1006.10
2018-12-21T07:18:49.946Z,1006.07
2018-12-21T07:19:49.940Z,1006.03
2018-12-21T07:20:49.935Z,1006.09
2018-12-21T07:21:49.904Z,1006.09
2018-12-21T07:22:49.902Z,1006.05
2018-12-21T07:23:49.896Z,1005.98
2018-12-21T07:24:49.879Z,1006.03
2018-12-21T07:25:49.868Z,1005.99
2018-12-21T07:26:49.880Z,1005.95
2018-12-21T07:27:49.851Z,1005.98
2018-12-21T07:28:49.845Z,1005.98
2018-12-21T07:29:49.829Z,1005.94
2018-12-21T07:30:49.818Z,1006.00
2018-12-21T07:31:49.797Z,1005.98
2018-12-21T07:32:49.798Z,1005.94
2018-12-21T07:33:49.785Z,1005.94
2018-12-21T07:34:49.785Z,1005.92
2018-12-21T07:35:49.773Z,1005.87
2018-12-21T07:36:49.766Z,1005.90
2018-12-21T07:37:49.744Z,1005.85
2018-12-21T07:38:49.723Z,1005.89
2018-12-21T07:39:49.702Z,1005.89
2018-12-21T07:40:49.702Z,1005.87
2018-12-21T07:41:49.701Z,1005.88
2018-12-21T07:42:49.714Z,1005.86
2018-12-21T07:43:49.679Z,1005.87
2018-12-21T07:44:49.650Z,1005.89
2018-12-21T07:45:49.653Z,1005.88
2018-12-21T07:46:49.732Z,1005.76
2018-12-21T07:47:49.614Z,1005.75
2018-12-21T07:48:49.632Z,1005.80
2018-12-21T07:49:49.592Z,1005.79
2018-12-21T07:50:49.593Z,1005.80
2018-12-21T07:51:49.589Z,1005.85
2018-12-21T07:52:49.568Z,1005.89
2018-12-21T07:53:49.590Z,1005.84
2018-12-21T07:54:49.543Z,1005.75
2018-12-21T07:55:49.539Z,1005.72
2018-12-21T07:56:49.536Z,1005.81
2018-12-21T07:57:49.518Z,1005.86
2018-12-21T07:58:56.912Z,1005.71
2018-12-21T07:59:50.498Z,1005.59
2018-12-21T08:00:49.476Z,1005.68
2018-12-21T08:01:49.475Z,1005.71
2018-12-21T08:02:49.478Z,1005.67
2018-12-21T08:03:49.440Z,1005.65
2018-12-21T08:04:49.444Z,1005.69
2018-12-21T08:05:49.425Z,1005.65
2018-12-21T08:06:49.416Z,1005.67
2018-12-21T08:07:49.401Z,1005.64
2018-12-21T08:08:49.436Z,1005.67
2018-12-21T08:09:49.386Z,1005.64
2018-12-21T08:10:49.381Z,1005.61
2018-12-21T08:11:49.382Z,1005.60
2018-12-21T08:12:49.346Z,1005.59
2018-12-21T08:13:49.337Z,1005.57
2018-12-21T08:14:49.341Z,1005.53
2018-12-21T08:15:49.320Z,1005.56
2018-12-21T08:16:49.325Z,1005.55
2018-12-21T08:17:49.288Z,1005.59
2018-12-21T08:18:49.304Z,1005.56
2018-12-21T08:19:49.270Z,1005.47
2018-12-21T08:20:49.264Z,1005.48
2018-12-21T08:21:49.251Z,1005.43
2018-12-21T08:22:49.250Z,1005.42
2018-12-21T08:23:49.237Z,1005.36
2018-12-21T08:24:49.205Z,1005.34
2018-12-21T08:25:49.240Z,1005.35
2018-12-21T08:26:49.184Z,1005.30
2018-12-21T08:27:49.189Z,1005.37
2018-12-21T08:28:49.160Z,1005.33
2018-12-21T08:29:49.156Z,1005.32
2018-12-21T08:30:49.148Z,1005.29
2018-12-21T08:31:49.163Z,1005.27
2018-12-21T08:32:49.121Z,1005.23
2018-12-21T08:33:49.113Z,1005.25
2018-12-21T08:34:49.100Z,1005.21
2018-12-21T08:35:49.104Z,1005.24
2018-12-21T08:36:49.088Z,1005.21
2018-12-21T08:37:49.060Z,1005.21
2018-12-21T08:38:49.068Z,1005.17
2018-12-21T08:39:49.053Z,1005.10
2018-12-21T08:40:49.064Z,1005.00
2018-12-21T08:41:49.073Z,1005.06
2018-12-21T08:42:49.014Z,1005.01
2018-12-21T08:43:49.023Z,1005.06
2018-12-21T08:44:49.002Z,1005.02
2018-12-21T08:45:48.992Z,1005.04
2018-12-21T08:46:48.973Z,1004.99
2018-12-21T08:47:48.957Z,1005.01
2018-12-21T08:48:48.939Z,1005.00
2018-12-21T08:49:48.945Z,1004.93
2018-12-21T08:50:48.926Z,1004.83
2018-12-21T08:51:48.934Z,1004.92
2018-12-21T08:52:48.913Z,1004.93
2018-12-21T08:53:52.535Z,1004.92
2018-12-21T08:54:48.885Z,1004.90
2018-12-21T08:55:48.863Z,1004.88
2018-12-21T08:56:48.870Z,1004.90
2018-12-21T08:57:48.858Z,1004.91
2018-12-21T08:58:48.842Z,1004.94
2018-12-21T08:59:48.832Z,1004.92
2018-12-21T09:00:48.817Z,1004.93
2018-12-21T09:01:48.804Z,1004.91
2018-12-21T09:02:48.800Z,1004.90
2018-12-21T09:03:48.816Z,1004.86
2018-12-21T09:04:48.773Z,1004.86
2018-12-21T09:05:48.753Z,1004.83
2018-12-21T09:06:48.761Z,1004.83
2018-12-21T09:07:48.737Z,1004.84
2018-12-21T09:08:48.735Z,1004.87
2018-12-21T09:09:48.743Z,1004.84
2018-12-21T09:10:48.727Z,1004.86
2018-12-21T09:11:48.687Z,1004.81
2018-12-21T09:12:48.692Z,1004.79
2018-12-21T09:13:48.683Z,1004.79
2018-12-21T09:14:48.666Z,1004.78
2018-12-21T09:15:48.663Z,1004.76
2018-12-21T09:16:48.632Z,1004.72
2018-12-21T09:17:48.631Z,1004.73
2018-12-21T09:18:48.620Z,1004.74
2018-12-21T09:19:48.673Z,1004.69
2018-12-21T09:20:48.634Z,1004.67
2018-12-21T09:21:48.679Z,1004.68
2018-12-21T09:22:48.573Z,1004.66
2018-12-21T09:23:48.556Z,1004.66
2018-12-21T09:24:48.559Z,1004.63
2018-12-21T09:25:48.535Z,1004.60
2018-12-21T09:26:48.643Z,1004.60
2018-12-21T09:27:48.522Z,1004.58
2018-12-21T09:28:48.515Z,1004.56
2018-12-21T09:29:48.569Z,1004.54
2018-12-21T09:30:48.506Z,1004.54
2018-12-21T09:31:48.476Z,1004.52
2018-12-21T09:32:48.463Z,1004.49
2018-12-21T09:33:48.451Z,1004.43
2018-12-21T09:34:48.434Z,1004.41
2018-12-21T09:35:48.432Z,1004.38
2018-12-21T09:36:48.434Z,1004.34
2018-12-21T09:37:48.414Z,1004.33
2018-12-21T09:38:49.139Z,1004.31
2018-12-21T09:39:48.385Z,1004.26
2018-12-21T09:40:48.386Z,1004.24
2018-12-21T09:41:48.411Z,1004.25
2018-12-21T09:42:48.368Z,1004.25
2018-12-21T09:43:48.351Z,1004.19
2018-12-21T09:44:52.513Z,1004.21
2018-12-21T09:45:48.320Z,1004.19
2018-12-21T09:46:48.324Z,1004.22
2018-12-21T09:47:48.313Z,1004.19
2018-12-21T09:48:48.298Z,1004.14
2018-12-21T09:49:48.287Z,1004.04
2018-12-21T09:50:48.260Z,1004.08
2018-12-21T09:51:48.255Z,1004.03
2018-12-21T09:52:48.283Z,1004.04
2018-12-21T09:53:48.241Z,1004.01
2018-12-21T09:54:48.232Z,1003.98
2018-12-21T09:55:48.211Z,1004.01
2018-12-21T09:56:48.195Z,1003.98
2018-12-21T09:57:48.261Z,1003.95
2018-12-21T09:58:48.189Z,1003.94
2018-12-21T09:59:48.162Z,1003.91
2018-12-21T10:00:48.165Z,1003.89
2018-12-21T10:01:48.147Z,1003.86
2018-12-21T10:02:48.143Z,1003.90
2018-12-21T10:03:48.129Z,1003.84
2018-12-21T10:04:48.117Z,1003.85
2018-12-21T10:05:48.109Z,1003.85
2018-12-21T10:06:48.087Z,1003.80
2018-12-21T10:07:48.088Z,1003.74
2018-12-21T10:08:48.072Z,1003.76
2018-12-21T10:09:48.124Z,1003.77
2018-12-21T10:10:48.076Z,1003.73
2018-12-21T10:11:48.058Z,1003.70
2018-12-21T10:12:48.034Z,1003.69
2018-12-21T10:13:48.014Z,1003.62
2018-12-21T10:14:48.009Z,1003.67
2018-12-21T10:15:48.017Z,1003.59
2018-12-21T10:16:47.994Z,1003.51
2018-12-21T10:17:47.976Z,1003.47
2018-12-21T10:18:47.960Z,1003.37
2018-12-21T10:19:47.959Z,1003.35
2018-12-21T10:20:47.985Z,1003.41
2018-12-21T10:21:55.512Z,1003.43
2018-12-21T10:22:47.930Z,1003.29
2018-12-21T10:23:47.929Z,1003.32
2018-12-21T10:24:47.906Z,1003.23
2018-12-21T10:25:47.925Z,1003.31
2018-12-21T10:26:47.910Z,1003.22
2018-12-21T10:27:47.856Z,1003.18
2018-12-21T10:28:47.856Z,1003.14
2018-12-21T10:29:47.851Z,1003.13
2018-12-21T10:30:47.836Z,1003.11
2018-12-21T10:31:48.104Z,1003.08
2018-12-21T10:32:47.849Z,1003.04
2018-12-21T10:33:47.801Z,1003.06
2018-12-21T10:34:47.842Z,1003.02
2018-12-21T10:35:47.839Z,1003.02
2018-12-21T10:36:47.809Z,1002.96
2018-12-21T10:37:47.865Z,1002.92
2018-12-21T10:38:47.756Z,1002.88
2018-12-21T10:39:47.761Z,1002.88
2018-12-21T10:40:47.763Z,1002.83
2018-12-21T10:41:47.711Z,1002.75
2018-12-21T10:42:47.703Z,1002.79
2018-12-21T10:43:47.701Z,1002.70
2018-12-21T10:44:47.686Z,1002.78
2018-12-21T10:45:47.677Z,1002.62
2018-12-21T10:46:47.659Z,1002.60
2018-12-21T10:47:47.651Z,1002.57
2018-12-21T10:48:48.049Z,1002.58
2018-12-21T10:49:47.623Z,1002.56
2018-12-21T10:50:48.519Z,1002.49
2018-12-21T10:51:47.630Z,1002.52
2018-12-21T10:52:47.606Z,1002.49
2018-12-21T10:53:47.603Z,1002.39
2018-12-21T10:54:47.581Z,1002.35
2018-12-21T10:55:47.590Z,1002.40
2018-12-21T10:56:47.649Z,1002.36
2018-12-21T10:57:47.539Z,1002.34
2018-12-21T10:58:47.562Z,1002.35
2018-12-21T10:59:47.538Z,1002.32
2018-12-21T11:00:47.515Z,1002.18
2018-12-21T11:01:47.499Z,1002.23
2018-12-21T11:02:47.485Z,1002.16
2018-12-21T11:03:47.475Z,1002.11
2018-12-21T11:04:47.480Z,1002.12
2018-12-21T11:05:47.460Z,1002.11
2018-12-21T11:06:47.441Z,1002.04
2018-12-21T11:07:47.434Z,1002.13
2018-12-21T11:08:47.415Z,1002.01
2018-12-21T11:09:47.411Z,1002.07
2018-12-21T11:10:47.417Z,1002.04
2018-12-21T11:11:47.394Z,1002.05
2018-12-21T11:12:47.371Z,1001.93
2018-12-21T11:13:47.368Z,1001.94
2018-12-21T11:14:47.354Z,1001.89
2018-12-21T11:15:47.362Z,1001.88
2018-12-21T11:16:47.354Z,1001.88
2018-12-21T11:17:47.330Z,1001.82
2018-12-21T11:18:47.309Z,1001.75
2018-12-21T11:19:47.297Z,1001.75
2018-12-21T11:20:47.301Z,1001.73
2018-12-21T11:21:47.353Z,1001.66
2018-12-21T11:22:47.259Z,1001.74
2018-12-21T11:23:47.260Z,1001.65
2018-12-21T11:24:47.280Z,1001.60
2018-12-21T11:25:47.225Z,1001.59
2018-12-21T11:26:47.231Z,1001.51
2018-12-21T11:27:47.230Z,1001.44
2018-12-21T11:28:47.201Z,1001.51
2018-12-21T11:29:47.190Z,1001.45
2018-12-21T11:30:47.187Z,1001.41
2018-12-21T11:31:47.217Z,1001.43
2018-12-21T11:32:47.158Z,1001.34
2018-12-21T11:33:47.151Z,1001.37
2018-12-21T11:34:47.150Z,1001.40
2018-12-21T11:35:47.134Z,1001.24
2018-12-21T11:36:47.187Z,1001.45
2018-12-21T11:37:47.571Z,1001.28
2018-12-21T11:38:47.095Z,1001.28
2018-12-21T11:39:48.025Z,1001.25
2018-12-21T11:40:48.025Z,1001.18
2018-12-21T11:41:47.117Z,1001.08
2018-12-21T11:42:47.049Z,1001.05
2018-12-21T11:43:47.047Z,1001.07
2018-12-21T11:44:47.036Z,1001.02
2018-12-21T11:45:47.019Z,1000.95
2018-12-21T11:46:47.014Z,1000.89
2018-12-21T11:47:47.029Z,1000.85
2018-12-21T11:48:47.027Z,1000.85
2018-12-21T11:49:46.965Z,1000.91
2018-12-21T11:50:46.959Z,1000.76
2018-12-21T11:51:46.948Z,1000.83
2018-12-21T11:52:46.952Z,1000.68
2018-12-21T11:53:46.922Z,1000.59
2018-12-21T11:54:47.061Z,1000.56
2018-12-21T11:55:46.917Z,1000.53
2018-12-21T11:56:46.936Z,1000.52
2018-12-21T11:57:46.910Z,1000.46
2018-12-21T11:58:46.917Z,1000.45
2018-12-21T11:59:46.857Z,1000.59
2018-12-21T12:00:46.877Z,1000.52
2018-12-21T12:01:46.840Z,1000.48
2018-12-21T12:02:46.842Z,1000.48
2018-12-21T12:03:46.827Z,1000.45
2018-12-21T12:04:46.846Z,1000.46
2018-12-21T12:05:46.805Z,1000.44